sensor_id;sensor_type;location;lat;lon;timestamp;pressure;altitude;pressure_sealevel;temperature;humidity
24280;BME280;12395;42.808;23.408;2022-07-12T00:00:47;95335.47;;;9.52;87.71
24280;BME280;12395;42.808;23.408;2022-07-12T00:03:13;95323.44;;;9.50;87.60
24280;BME280;12395;42.808;23.408;2022-07-12T00:05:38;95345.75;;;9.62;87.59
24280;BME280;12395;42.808;23.408;2022-07-12T00:08:04;95336.91;;;9.55;87.96
24280;BME280;12395;42.808;23.408;2022-07-12T00:10:31;95335.94;;;9.56;87.73
24280;BME280;12395;42.808;23.408;2022-07-12T00:12:57;95351.88;;;9.69;87.90
24280;BME280;12395;42.808;23.408;2022-07-12T00:15:23;95355.81;;;9.73;87.38
24280;BME280;12395;42.808;23.408;2022-07-12T00:17:48;95357.78;;;9.64;87.86
24280;BME280;12395;42.808;23.408;2022-07-12T00:20:14;95348.63;;;9.67;87.72
24280;BME280;12395;42.808;23.408;2022-07-12T00:22:39;95351.91;;;9.48;88.79
24280;BME280;12395;42.808;23.408;2022-07-12T00:25:05;95351.66;;;9.43;88.90
24280;BME280;12395;42.808;23.408;2022-07-12T00:27:31;95353.06;;;9.39;88.87
24280;BME280;12395;42.808;23.408;2022-07-12T00:29:56;95358.41;;;9.45;89.21
24280;BME280;12395;42.808;23.408;2022-07-12T00:32:22;95345.34;;;9.44;88.85
24280;BME280;12395;42.808;23.408;2022-07-12T00:34:47;95338.19;;;9.38;88.72
24280;BME280;12395;42.808;23.408;2022-07-12T00:37:12;95360.47;;;9.50;89.63
24280;BME280;12395;42.808;23.408;2022-07-12T00:39:38;95330.13;;;9.24;89.29
24280;BME280;12395;42.808;23.408;2022-07-12T00:42:03;95337.28;;;9.09;90.36
24280;BME280;12395;42.808;23.408;2022-07-12T00:44:29;95352.22;;;9.17;91.20
24280;BME280;12395;42.808;23.408;2022-07-12T00:46:56;95349.50;;;9.10;91.49
24280;BME280;12395;42.808;23.408;2022-07-12T00:49:23;95348.88;;;9.08;91.13
24280;BME280;12395;42.808;23.408;2022-07-12T00:51:49;95344.09;;;8.97;91.92
24280;BME280;12395;42.808;23.408;2022-07-12T00:54:16;95352.63;;;8.99;91.66
24280;BME280;12395;42.808;23.408;2022-07-12T00:56:43;95340.34;;;8.92;91.93
24280;BME280;12395;42.808;23.408;2022-07-12T00:59:09;95347.19;;;8.86;92.34
24280;BME280;12395;42.808;23.408;2022-07-12T01:01:35;95330.25;;;8.95;92.12
24280;BME280;12395;42.808;23.408;2022-07-12T01:04:02;95334.50;;;8.96;92.01
24280;BME280;12395;42.808;23.408;2022-07-12T01:06:29;95346.28;;;8.94;91.86
24280;BME280;12395;42.808;23.408;2022-07-12T01:08:56;95345.19;;;8.88;92.07
24280;BME280;12395;42.808;23.408;2022-07-12T01:11:22;95344.19;;;8.89;91.74
24280;BME280;12395;42.808;23.408;2022-07-12T01:13:47;95331.91;;;8.82;91.05
24280;BME280;12395;42.808;23.408;2022-07-12T01:16:13;95351.22;;;8.82;90.62
24280;BME280;12395;42.808;23.408;2022-07-12T01:18:40;95346.84;;;8.89;90.78
24280;BME280;12395;42.808;23.408;2022-07-12T01:21:07;95342.03;;;8.78;91.11
24280;BME280;12395;42.808;23.408;2022-07-12T01:23:33;95350.88;;;8.85;91.05
24280;BME280;12395;42.808;23.408;2022-07-12T01:26:00;95356.19;;;8.92;91.16
24280;BME280;12395;42.808;23.408;2022-07-12T01:28:26;95355.91;;;9.01;91.86
24280;BME280;12395;42.808;23.408;2022-07-12T01:30:52;95353.63;;;8.98;91.44
24280;BME280;12395;42.808;23.408;2022-07-12T01:33:18;95356.25;;;8.63;91.73
24280;BME280;12395;42.808;23.408;2022-07-12T01:35:46;95327.88;;;8.50;92.65
24280;BME280;12395;42.808;23.408;2022-07-12T01:38:12;95343.59;;;8.58;92.93
24280;BME280;12395;42.808;23.408;2022-07-12T01:40:38;95355.28;;;8.64;92.48
24280;BME280;12395;42.808;23.408;2022-07-12T01:43:04;95329.53;;;8.51;92.75
24280;BME280;12395;42.808;23.408;2022-07-12T01:45:29;95352.00;;;8.62;93.44
24280;BME280;12395;42.808;23.408;2022-07-12T01:47:55;95350.53;;;8.59;93.93
24280;BME280;12395;42.808;23.408;2022-07-12T01:50:24;95338.88;;;8.68;93.01
24280;BME280;12395;42.808;23.408;2022-07-12T01:52:51;95337.69;;;8.56;93.30
24280;BME280;12395;42.808;23.408;2022-07-12T01:55:17;95341.06;;;8.50;94.70
24280;BME280;12395;42.808;23.408;2022-07-12T01:57:44;95330.50;;;8.50;94.52
24280;BME280;12395;42.808;23.408;2022-07-12T02:00:11;95332.16;;;8.51;94.46
24280;BME280;12395;42.808;23.408;2022-07-12T02:02:37;95335.44;;;8.53;94.56
24280;BME280;12395;42.808;23.408;2022-07-12T02:05:04;95340.59;;;8.61;94.04
24280;BME280;12395;42.808;23.408;2022-07-12T02:07:31;95340.81;;;8.60;93.23
24280;BME280;12395;42.808;23.408;2022-07-12T02:09:57;95318.28;;;8.49;93.08
24280;BME280;12395;42.808;23.408;2022-07-12T02:12:23;95341.16;;;8.57;93.82
24280;BME280;12395;42.808;23.408;2022-07-12T02:14:49;95338.72;;;8.55;93.82
24280;BME280;12395;42.808;23.408;2022-07-12T02:17:15;95338.25;;;8.51;93.42
24280;BME280;12395;42.808;23.408;2022-07-12T02:19:41;95348.00;;;8.51;93.83
24280;BME280;12395;42.808;23.408;2022-07-12T02:22:06;95321.78;;;8.35;94.61
24280;BME280;12395;42.808;23.408;2022-07-12T02:24:31;95345.72;;;8.48;94.35
24280;BME280;12395;42.808;23.408;2022-07-12T02:26:57;95335.34;;;8.46;94.29
24280;BME280;12395;42.808;23.408;2022-07-12T02:29:22;95337.34;;;8.44;94.16
24280;BME280;12395;42.808;23.408;2022-07-12T02:31:48;95346.72;;;8.47;94.11
24280;BME280;12395;42.808;23.408;2022-07-12T02:34:13;95328.53;;;8.37;94.65
24280;BME280;12395;42.808;23.408;2022-07-12T02:36:38;95340.53;;;8.40;94.26
24280;BME280;12395;42.808;23.408;2022-07-12T02:39:04;95342.72;;;8.36;94.73
24280;BME280;12395;42.808;23.408;2022-07-12T02:41:32;95337.28;;;8.38;94.48
24280;BME280;12395;42.808;23.408;2022-07-12T02:43:59;95349.84;;;8.36;95.10
24280;BME280;12395;42.808;23.408;2022-07-12T02:46:25;95346.78;;;8.24;95.67
24280;BME280;12395;42.808;23.408;2022-07-12T02:48:51;95348.28;;;8.27;95.11
24280;BME280;12395;42.808;23.408;2022-07-12T02:51:17;95354.19;;;8.29;95.25
24280;BME280;12395;42.808;23.408;2022-07-12T02:53:43;95342.34;;;8.25;95.12
24280;BME280;12395;42.808;23.408;2022-07-12T02:56:09;95362.97;;;8.21;94.87
24280;BME280;12395;42.808;23.408;2022-07-12T02:58:35;95342.50;;;8.09;95.21
24280;BME280;12395;42.808;23.408;2022-07-12T03:01:01;95366.19;;;8.17;95.12
24280;BME280;12395;42.808;23.408;2022-07-12T03:03:27;95354.81;;;8.16;95.18
24280;BME280;12395;42.808;23.408;2022-07-12T03:05:52;95369.09;;;8.22;95.32
24280;BME280;12395;42.808;23.408;2022-07-12T03:08:18;95375.72;;;8.18;95.57
24280;BME280;12395;42.808;23.408;2022-07-12T03:10:43;95368.97;;;8.15;95.43
24280;BME280;12395;42.808;23.408;2022-07-12T03:13:09;95360.81;;;8.10;95.96
24280;BME280;12395;42.808;23.408;2022-07-12T03:15:35;95369.19;;;8.14;95.30
24280;BME280;12395;42.808;23.408;2022-07-12T03:18:01;95386.09;;;8.19;95.53
24280;BME280;12395;42.808;23.408;2022-07-12T03:20:28;95384.81;;;8.15;96.01
24280;BME280;12395;42.808;23.408;2022-07-12T03:22:54;95387.31;;;8.17;96.42
24280;BME280;12395;42.808;23.408;2022-07-12T03:25:23;95387.75;;;8.20;95.87
24280;BME280;12395;42.808;23.408;2022-07-12T03:27:49;95391.50;;;8.26;96.16
24280;BME280;12395;42.808;23.408;2022-07-12T03:30:15;95400.06;;;8.28;96.23
24280;BME280;12395;42.808;23.408;2022-07-12T03:32:41;95392.31;;;8.26;96.13
24280;BME280;12395;42.808;23.408;2022-07-12T03:35:07;95396.63;;;8.42;96.63
24280;BME280;12395;42.808;23.408;2022-07-12T03:37:48;95409.28;;;8.46;95.64
24280;BME280;12395;42.808;23.408;2022-07-12T03:40:16;95397.44;;;8.42;95.61
24280;BME280;12395;42.808;23.408;2022-07-12T03:42:42;95398.72;;;8.61;95.53
24280;BME280;12395;42.808;23.408;2022-07-12T03:45:08;95396.88;;;8.47;95.43
24280;BME280;12395;42.808;23.408;2022-07-12T03:47:34;95372.84;;;8.42;95.44
24280;BME280;12395;42.808;23.408;2022-07-12T03:50:04;95391.59;;;8.47;95.75
24280;BME280;12395;42.808;23.408;2022-07-12T03:52:31;95390.91;;;8.53;96.09
24280;BME280;12395;42.808;23.408;2022-07-12T03:54:57;95399.34;;;8.63;95.95
24280;BME280;12395;42.808;23.408;2022-07-12T03:57:22;95398.97;;;8.66;96.47
24280;BME280;12395;42.808;23.408;2022-07-12T03:59:49;95401.16;;;8.77;95.40
24280;BME280;12395;42.808;23.408;2022-07-12T04:02:14;95386.66;;;8.73;95.30
24280;BME280;12395;42.808;23.408;2022-07-12T04:04:40;95405.06;;;8.96;94.99
24280;BME280;12395;42.808;23.408;2022-07-12T04:07:07;95396.94;;;8.97;94.75
24280;BME280;12395;42.808;23.408;2022-07-12T04:09:32;95401.28;;;9.19;94.77
24280;BME280;12395;42.808;23.408;2022-07-12T04:11:58;95394.22;;;9.48;92.75
24280;BME280;12395;42.808;23.408;2022-07-12T04:14:23;95400.63;;;10.02;90.57
24280;BME280;12395;42.808;23.408;2022-07-12T04:16:49;95406.75;;;11.59;84.08
24280;BME280;12395;42.808;23.408;2022-07-12T04:19:14;95409.28;;;12.46;78.82
24280;BME280;12395;42.808;23.408;2022-07-12T04:21:42;95409.00;;;12.80;75.31
24280;BME280;12395;42.808;23.408;2022-07-12T04:24:07;95421.72;;;13.79;71.73
24280;BME280;12395;42.808;23.408;2022-07-12T04:26:33;95407.50;;;15.75;63.04
24280;BME280;12395;42.808;23.408;2022-07-12T04:28:58;95423.63;;;17.83;54.96
24280;BME280;12395;42.808;23.408;2022-07-12T04:31:24;95430.19;;;19.37;49.41
24280;BME280;12395;42.808;23.408;2022-07-12T04:33:50;95441.06;;;20.70;45.22
24280;BME280;12395;42.808;23.408;2022-07-12T04:36:16;95440.59;;;21.10;43.83
24280;BME280;12395;42.808;23.408;2022-07-12T04:38:42;95433.41;;;20.04;45.55
24280;BME280;12395;42.808;23.408;2022-07-12T04:41:07;95429.03;;;18.61;49.36
24280;BME280;12395;42.808;23.408;2022-07-12T04:43:33;95431.53;;;17.50;52.70
24280;BME280;12395;42.808;23.408;2022-07-12T04:46:08;95420.06;;;16.57;58.35
24280;BME280;12395;42.808;23.408;2022-07-12T04:48:34;95435.94;;;15.99;58.77
24280;BME280;12395;42.808;23.408;2022-07-12T04:51:00;95431.97;;;15.60;60.57
24280;BME280;12395;42.808;23.408;2022-07-12T04:53:26;95431.06;;;15.30;65.27
24280;BME280;12395;42.808;23.408;2022-07-12T04:55:54;95426.78;;;15.11;67.57
24280;BME280;12395;42.808;23.408;2022-07-12T04:58:21;95433.06;;;14.98;70.29
24280;BME280;12395;42.808;23.408;2022-07-12T05:00:46;95423.41;;;14.79;70.72
24280;BME280;12395;42.808;23.408;2022-07-12T05:03:12;95425.56;;;14.71;71.78
24280;BME280;12395;42.808;23.408;2022-07-12T05:05:37;95436.22;;;14.71;71.12
24280;BME280;12395;42.808;23.408;2022-07-12T05:08:03;95425.00;;;14.62;70.17
24280;BME280;12395;42.808;23.408;2022-07-12T05:10:29;95424.41;;;14.60;71.95
24280;BME280;12395;42.808;23.408;2022-07-12T05:12:55;95435.50;;;14.57;70.05
24280;BME280;12395;42.808;23.408;2022-07-12T05:15:24;95433.50;;;14.52;69.51
24280;BME280;12395;42.808;23.408;2022-07-12T05:17:50;95432.34;;;14.42;69.77
24280;BME280;12395;42.808;23.408;2022-07-12T05:20:15;95442.19;;;14.41;71.56
24280;BME280;12395;42.808;23.408;2022-07-12T05:22:41;95438.34;;;14.37;69.20
24280;BME280;12395;42.808;23.408;2022-07-12T05:25:07;95443.03;;;14.42;68.98
24280;BME280;12395;42.808;23.408;2022-07-12T05:27:34;95434.72;;;14.32;68.46
24280;BME280;12395;42.808;23.408;2022-07-12T05:30:01;95443.31;;;14.27;68.33
24280;BME280;12395;42.808;23.408;2022-07-12T05:32:27;95430.50;;;14.18;68.93
24280;BME280;12395;42.808;23.408;2022-07-12T05:34:52;95451.13;;;14.29;71.25
24280;BME280;12395;42.808;23.408;2022-07-12T05:37:18;95422.22;;;14.26;70.84
24280;BME280;12395;42.808;23.408;2022-07-12T05:39:43;95441.81;;;14.38;68.69
24280;BME280;12395;42.808;23.408;2022-07-12T05:42:08;95433.06;;;14.31;68.41
24280;BME280;12395;42.808;23.408;2022-07-12T05:44:34;95437.53;;;14.37;68.28
24280;BME280;12395;42.808;23.408;2022-07-12T05:47:00;95433.66;;;14.33;68.98
24280;BME280;12395;42.808;23.408;2022-07-12T05:49:25;95441.41;;;14.41;68.02
24280;BME280;12395;42.808;23.408;2022-07-12T05:51:50;95433.19;;;14.42;67.00
24280;BME280;12395;42.808;23.408;2022-07-12T05:54:35;95438.63;;;14.54;67.01
24280;BME280;12395;42.808;23.408;2022-07-12T05:57:02;95434.75;;;14.50;67.37
24280;BME280;12395;42.808;23.408;2022-07-12T05:59:27;95430.63;;;14.54;67.13
24280;BME280;12395;42.808;23.408;2022-07-12T06:01:54;95438.50;;;14.67;67.32
24280;BME280;12395;42.808;23.408;2022-07-12T06:04:20;95427.28;;;14.58;66.76
24280;BME280;12395;42.808;23.408;2022-07-12T06:06:46;95437.47;;;14.68;67.68
24280;BME280;12395;42.808;23.408;2022-07-12T06:09:11;95432.91;;;14.75;67.35
24280;BME280;12395;42.808;23.408;2022-07-12T06:11:37;95427.75;;;14.74;68.94
24280;BME280;12395;42.808;23.408;2022-07-12T06:14:02;95435.75;;;14.74;68.38
24280;BME280;12395;42.808;23.408;2022-07-12T06:16:28;95436.34;;;14.76;67.80
24280;BME280;12395;42.808;23.408;2022-07-12T06:18:53;95397.69;;;14.66;67.60
24280;BME280;12395;42.808;23.408;2022-07-12T06:21:18;95406.28;;;14.68;66.49
24280;BME280;12395;42.808;23.408;2022-07-12T06:23:44;95425.72;;;14.94;66.25
24280;BME280;12395;42.808;23.408;2022-07-12T06:26:09;95416.22;;;14.98;67.08
24280;BME280;12395;42.808;23.408;2022-07-12T06:28:35;95441.00;;;15.05;65.43
24280;BME280;12395;42.808;23.408;2022-07-12T06:31:02;95426.00;;;15.04;66.71
24280;BME280;12395;42.808;23.408;2022-07-12T06:33:28;95420.59;;;15.10;67.72
24280;BME280;12395;42.808;23.408;2022-07-12T06:35:53;95420.19;;;15.13;66.47
24280;BME280;12395;42.808;23.408;2022-07-12T06:38:19;95430.72;;;15.26;67.39
24280;BME280;12395;42.808;23.408;2022-07-12T06:40:44;95419.56;;;15.29;66.14
24280;BME280;12395;42.808;23.408;2022-07-12T06:43:11;95425.22;;;15.39;65.28
24280;BME280;12395;42.808;23.408;2022-07-12T06:45:37;95426.69;;;15.35;65.23
24280;BME280;12395;42.808;23.408;2022-07-12T06:48:03;95428.19;;;15.50;65.36
24280;BME280;12395;42.808;23.408;2022-07-12T06:50:30;95425.44;;;15.56;66.25
24280;BME280;12395;42.808;23.408;2022-07-12T06:52:55;95430.81;;;15.68;65.35
24280;BME280;12395;42.808;23.408;2022-07-12T06:55:21;95410.28;;;15.68;64.83
24280;BME280;12395;42.808;23.408;2022-07-12T06:57:46;95410.31;;;15.80;65.30
24280;BME280;12395;42.808;23.408;2022-07-12T07:00:12;95419.44;;;16.02;64.48
24280;BME280;12395;42.808;23.408;2022-07-12T07:02:38;95426.56;;;16.08;65.25
24280;BME280;12395;42.808;23.408;2022-07-12T07:05:06;95429.03;;;16.21;64.37
24280;BME280;12395;42.808;23.408;2022-07-12T07:07:32;95423.47;;;16.34;63.89
24280;BME280;12395;42.808;23.408;2022-07-12T07:09:58;95418.13;;;16.34;63.90
24280;BME280;12395;42.808;23.408;2022-07-12T07:12:24;95419.69;;;16.53;63.88
24280;BME280;12395;42.808;23.408;2022-07-12T07:14:49;95424.72;;;16.61;61.92
24280;BME280;12395;42.808;23.408;2022-07-12T07:17:16;95426.34;;;16.74;62.59
24280;BME280;12395;42.808;23.408;2022-07-12T07:19:42;95416.69;;;16.84;60.72
24280;BME280;12395;42.808;23.408;2022-07-12T07:22:09;95422.16;;;17.01;60.57
24280;BME280;12395;42.808;23.408;2022-07-12T07:24:35;95418.28;;;17.20;59.09
24280;BME280;12395;42.808;23.408;2022-07-12T07:27:00;95405.22;;;17.35;59.65
24280;BME280;12395;42.808;23.408;2022-07-12T07:29:26;95406.00;;;17.87;57.99
24280;BME280;12395;42.808;23.408;2022-07-12T07:32:10;95410.41;;;18.55;54.85
24280;BME280;12395;42.808;23.408;2022-07-12T07:34:35;95422.56;;;19.12;54.21
24280;BME280;12395;42.808;23.408;2022-07-12T07:37:01;95387.72;;;19.17;52.58
24280;BME280;12395;42.808;23.408;2022-07-12T07:39:27;95410.31;;;19.21;52.20
24280;BME280;12395;42.808;23.408;2022-07-12T07:41:53;95417.00;;;19.18;51.74
24280;BME280;12395;42.808;23.408;2022-07-12T07:44:18;95403.53;;;18.97;53.20
24280;BME280;12395;42.808;23.408;2022-07-12T07:46:44;95403.81;;;19.17;53.41
24280;BME280;12395;42.808;23.408;2022-07-12T07:49:09;95409.94;;;19.51;51.64
24280;BME280;12395;42.808;23.408;2022-07-12T07:51:35;95411.50;;;19.68;50.09
24280;BME280;12395;42.808;23.408;2022-07-12T07:54:00;95403.47;;;19.95;48.55
24280;BME280;12395;42.808;23.408;2022-07-12T07:56:28;95403.28;;;20.02;48.01
24280;BME280;12395;42.808;23.408;2022-07-12T07:58:53;95408.78;;;20.17;48.84
24280;BME280;12395;42.808;23.408;2022-07-12T08:01:19;95410.91;;;20.15;47.48
24280;BME280;12395;42.808;23.408;2022-07-12T08:03:45;95409.97;;;20.26;45.51
24280;BME280;12395;42.808;23.408;2022-07-12T08:06:10;95396.16;;;20.44;43.85
24280;BME280;12395;42.808;23.408;2022-07-12T08:08:36;95386.28;;;20.54;45.08
24280;BME280;12395;42.808;23.408;2022-07-12T08:11:01;95387.47;;;20.37;44.37
24280;BME280;12395;42.808;23.408;2022-07-12T08:13:27;95389.19;;;20.48;45.65
24280;BME280;12395;42.808;23.408;2022-07-12T08:15:53;95389.59;;;20.66;45.69
24280;BME280;12395;42.808;23.408;2022-07-12T08:18:18;95391.50;;;21.03;45.80
24280;BME280;12395;42.808;23.408;2022-07-12T08:20:43;95383.97;;;21.05;47.45
24280;BME280;12395;42.808;23.408;2022-07-12T08:23:09;95373.50;;;21.08;45.19
24280;BME280;12395;42.808;23.408;2022-07-12T08:25:35;95386.53;;;21.26;45.69
24280;BME280;12395;42.808;23.408;2022-07-12T08:28:00;95383.63;;;20.96;44.54
24280;BME280;12395;42.808;23.408;2022-07-12T08:30:26;95384.94;;;20.94;44.09
24280;BME280;12395;42.808;23.408;2022-07-12T08:32:51;95393.00;;;20.89;44.68
24280;BME280;12395;42.808;23.408;2022-07-12T08:35:18;95393.06;;;20.62;44.53
24280;BME280;12395;42.808;23.408;2022-07-12T08:37:43;95385.53;;;20.64;45.24
24280;BME280;12395;42.808;23.408;2022-07-12T08:40:09;95384.84;;;20.78;45.88
24280;BME280;12395;42.808;23.408;2022-07-12T08:42:36;95382.38;;;21.04;46.22
24280;BME280;12395;42.808;23.408;2022-07-12T08:45:05;95366.28;;;21.19;46.42
24280;BME280;12395;42.808;23.408;2022-07-12T08:47:31;95371.16;;;21.27;47.29
24280;BME280;12395;42.808;23.408;2022-07-12T08:50:17;95376.25;;;21.18;45.33
24280;BME280;12395;42.808;23.408;2022-07-12T08:52:46;95365.97;;;21.15;43.09
24280;BME280;12395;42.808;23.408;2022-07-12T08:55:35;95337.50;;;20.83;44.03
24280;BME280;12395;42.808;23.408;2022-07-12T08:58:01;95368.75;;;21.25;41.43
24280;BME280;12395;42.808;23.408;2022-07-12T09:00:28;95369.41;;;21.52;42.72
24280;BME280;12395;42.808;23.408;2022-07-12T09:02:56;95371.03;;;21.59;42.10
24280;BME280;12395;42.808;23.408;2022-07-12T09:05:23;95368.66;;;21.77;40.20
24280;BME280;12395;42.808;23.408;2022-07-12T09:07:50;95370.09;;;22.00;40.89
24280;BME280;12395;42.808;23.408;2022-07-12T09:10:17;95367.94;;;21.97;39.98
24280;BME280;12395;42.808;23.408;2022-07-12T09:12:43;95366.91;;;22.13;41.12
24280;BME280;12395;42.808;23.408;2022-07-12T09:15:21;95377.44;;;22.30;42.72
24280;BME280;12395;42.808;23.408;2022-07-12T09:18:03;95371.50;;;22.38;41.77
24280;BME280;12395;42.808;23.408;2022-07-12T09:20:33;95374.22;;;22.43;39.35
24280;BME280;12395;42.808;23.408;2022-07-12T09:23:11;95364.31;;;21.66;40.25
24280;BME280;12395;42.808;23.408;2022-07-12T09:25:38;95375.41;;;21.75;38.29
24280;BME280;12395;42.808;23.408;2022-07-12T09:28:08;95358.56;;;21.47;39.05
24280;BME280;12395;42.808;23.408;2022-07-12T09:30:35;95361.84;;;21.55;39.39
24280;BME280;12395;42.808;23.408;2022-07-12T09:33:06;95355.97;;;21.73;39.33
24280;BME280;12395;42.808;23.408;2022-07-12T09:36:08;95354.94;;;21.84;39.36
24280;BME280;12395;42.808;23.408;2022-07-12T09:38:51;95358.41;;;21.79;40.02
24280;BME280;12395;42.808;23.408;2022-07-12T09:41:26;95339.78;;;21.68;40.17
24280;BME280;12395;42.808;23.408;2022-07-12T09:43:53;95354.56;;;21.60;41.33
24280;BME280;12395;42.808;23.408;2022-07-12T09:46:19;95348.63;;;21.53;40.54
24280;BME280;12395;42.808;23.408;2022-07-12T09:48:46;95349.59;;;21.94;41.59
24280;BME280;12395;42.808;23.408;2022-07-12T09:51:18;95339.63;;;22.04;39.46
24280;BME280;12395;42.808;23.408;2022-07-12T09:53:48;95327.50;;;22.42;38.88
24280;BME280;12395;42.808;23.408;2022-07-12T09:56:17;95347.47;;;22.96;40.01
24280;BME280;12395;42.808;23.408;2022-07-12T09:58:54;95349.59;;;23.05;37.69
24280;BME280;12395;42.808;23.408;2022-07-12T10:01:21;95350.16;;;22.96;38.12
24280;BME280;12395;42.808;23.408;2022-07-12T10:03:48;95350.69;;;22.88;36.67
24280;BME280;12395;42.808;23.408;2022-07-12T10:06:25;95348.84;;;22.79;37.12
24280;BME280;12395;42.808;23.408;2022-07-12T10:08:51;95350.19;;;22.61;37.01
24280;BME280;12395;42.808;23.408;2022-07-12T10:11:18;95339.13;;;22.68;38.34
24280;BME280;12395;42.808;23.408;2022-07-12T10:13:44;95342.34;;;22.70;37.78
24280;BME280;12395;42.808;23.408;2022-07-12T10:16:13;95334.75;;;22.82;37.95
24280;BME280;12395;42.808;23.408;2022-07-12T10:18:38;95339.09;;;22.83;37.30
24280;BME280;12395;42.808;23.408;2022-07-12T10:21:20;95341.53;;;22.94;37.34
24280;BME280;12395;42.808;23.408;2022-07-12T10:23:48;95333.91;;;23.12;37.12
24280;BME280;12395;42.808;23.408;2022-07-12T10:28:55;95339.00;;;23.87;36.23
24280;BME280;12395;42.808;23.408;2022-07-12T10:31:24;95335.69;;;24.00;34.83
24280;BME280;12395;42.808;23.408;2022-07-12T10:34:08;95338.97;;;23.97;35.13
24280;BME280;12395;42.808;23.408;2022-07-12T10:39:26;95316.91;;;23.70;34.59
24280;BME280;12395;42.808;23.408;2022-07-12T10:44:38;95317.66;;;23.86;35.95
24280;BME280;12395;42.808;23.408;2022-07-12T10:47:06;95326.47;;;24.06;35.38
24280;BME280;12395;42.808;23.408;2022-07-12T10:49:33;95326.53;;;23.91;34.00
24280;BME280;12395;42.808;23.408;2022-07-12T10:57:44;95319.78;;;23.30;36.59
24280;BME280;12395;42.808;23.408;2022-07-12T11:00:11;95306.88;;;23.12;37.29
24280;BME280;12395;42.808;23.408;2022-07-12T11:02:37;95315.00;;;23.07;38.92
24280;BME280;12395;42.808;23.408;2022-07-12T11:05:03;95313.13;;;23.02;38.82
24280;BME280;12395;42.808;23.408;2022-07-12T11:07:29;95320.66;;;23.10;36.70
24280;BME280;12395;42.808;23.408;2022-07-12T11:09:55;95324.41;;;23.24;37.01
24280;BME280;12395;42.808;23.408;2022-07-12T11:12:27;95324.03;;;23.51;36.33
24280;BME280;12395;42.808;23.408;2022-07-12T11:14:54;95325.63;;;23.57;35.79
24280;BME280;12395;42.808;23.408;2022-07-12T11:17:30;95322.38;;;23.60;36.38
24280;BME280;12395;42.808;23.408;2022-07-12T11:20:11;95324.66;;;23.28;36.55
24280;BME280;12395;42.808;23.408;2022-07-12T11:22:38;95325.09;;;22.71;37.43
24280;BME280;12395;42.808;23.408;2022-07-12T11:25:09;95330.19;;;22.52;38.91
24280;BME280;12395;42.808;23.408;2022-07-12T11:27:36;95323.44;;;22.45;38.04
24280;BME280;12395;42.808;23.408;2022-07-12T11:30:04;95321.03;;;22.43;37.42
24280;BME280;12395;42.808;23.408;2022-07-12T11:32:39;95310.19;;;22.33;38.87
24280;BME280;12395;42.808;23.408;2022-07-12T11:35:18;95321.84;;;22.39;37.53
24280;BME280;12395;42.808;23.408;2022-07-12T11:37:51;95310.75;;;22.40;39.45
24280;BME280;12395;42.808;23.408;2022-07-12T11:40:28;95310.75;;;22.70;39.15
24280;BME280;12395;42.808;23.408;2022-07-12T11:42:58;95304.66;;;23.19;37.00
24280;BME280;12395;42.808;23.408;2022-07-12T11:45:26;95298.94;;;23.45;34.91
24280;BME280;12395;42.808;23.408;2022-07-12T11:47:52;95283.97;;;23.58;35.17
24280;BME280;12395;42.808;23.408;2022-07-12T11:50:18;95297.53;;;23.53;34.62
24280;BME280;12395;42.808;23.408;2022-07-12T11:52:45;95303.66;;;23.73;34.28
24280;BME280;12395;42.808;23.408;2022-07-12T11:55:10;95278.03;;;23.56;34.02
24280;BME280;12395;42.808;23.408;2022-07-12T11:57:36;95271.28;;;23.53;36.29
24280;BME280;12395;42.808;23.408;2022-07-12T12:02:43;95269.50;;;23.29;34.33
24280;BME280;12395;42.808;23.408;2022-07-12T12:05:08;95283.75;;;23.54;34.73
24280;BME280;12395;42.808;23.408;2022-07-12T12:07:34;95279.66;;;23.57;34.60
24280;BME280;12395;42.808;23.408;2022-07-12T12:12:27;95279.03;;;23.06;35.26
24280;BME280;12395;42.808;23.408;2022-07-12T12:14:52;95276.63;;;22.99;36.44
24280;BME280;12395;42.808;23.408;2022-07-12T12:17:18;95270.94;;;23.06;36.06
24280;BME280;12395;42.808;23.408;2022-07-12T12:19:43;95260.28;;;23.30;35.85
24280;BME280;12395;42.808;23.408;2022-07-12T12:22:48;95277.44;;;23.69;34.32
24280;BME280;12395;42.808;23.408;2022-07-12T12:25:15;95267.19;;;23.61;35.98
24280;BME280;12395;42.808;23.408;2022-07-12T12:30:07;95252.19;;;23.25;34.81
24280;BME280;12395;42.808;23.408;2022-07-12T12:32:59;95254.94;;;23.20;35.16
24280;BME280;12395;42.808;23.408;2022-07-12T12:38:19;95251.72;;;23.08;35.06
24280;BME280;12395;42.808;23.408;2022-07-12T12:40:51;95271.13;;;23.25;36.35
24280;BME280;12395;42.808;23.408;2022-07-12T12:43:20;95240.06;;;23.17;36.65
24280;BME280;12395;42.808;23.408;2022-07-12T12:45:50;95262.84;;;23.65;35.94
24280;BME280;12395;42.808;23.408;2022-07-12T12:48:26;95279.53;;;23.82;35.01
24280;BME280;12395;42.808;23.408;2022-07-12T12:50:53;95270.72;;;24.05;35.37
24280;BME280;12395;42.808;23.408;2022-07-12T12:53:21;95273.22;;;24.30;35.11
24280;BME280;12395;42.808;23.408;2022-07-12T12:55:49;95264.97;;;24.45;35.24
24280;BME280;12395;42.808;23.408;2022-07-12T12:58:16;95261.69;;;24.48;33.76
24280;BME280;12395;42.808;23.408;2022-07-12T13:00:44;95258.41;;;24.51;33.81
24280;BME280;12395;42.808;23.408;2022-07-12T13:03:12;95273.50;;;24.58;34.78
24280;BME280;12395;42.808;23.408;2022-07-12T13:05:38;95259.91;;;24.63;34.28
24280;BME280;12395;42.808;23.408;2022-07-12T13:08:05;95256.00;;;25.02;34.08
24280;BME280;12395;42.808;23.408;2022-07-12T13:10:32;95256.06;;;24.97;33.53
24280;BME280;12395;42.808;23.408;2022-07-12T13:12:58;95258.16;;;25.24;34.05
24280;BME280;12395;42.808;23.408;2022-07-12T13:15:25;95256.63;;;25.18;32.44
24280;BME280;12395;42.808;23.408;2022-07-12T13:17:51;95263.16;;;25.17;32.90